createdAt,value
2023-02-16T00:01:17.699Z,20.93
2023-02-16T00:03:44.510Z,20.60
2023-02-16T00:06:15.844Z,20.67
2023-02-16T00:08:51.721Z,21.63
2023-02-16T00:11:51.005Z,22.27
2023-02-16T00:14:19.026Z,21.13
2023-02-16T00:16:45.686Z,20.10
2023-02-16T00:19:27.461Z,20.97
2023-02-16T00:21:56.756Z,20.90
2023-02-16T00:24:24.510Z,20.20
2023-02-16T00:26:51.176Z,20.80
2023-02-16T00:29:23.484Z,21.63
2023-02-16T00:31:50.833Z,21.17
2023-02-16T00:34:31.456Z,20.53
2023-02-16T00:37:02.683Z,20.17
2023-02-16T00:39:30.203Z,20.77
2023-02-16T00:42:02.875Z,20.47
2023-02-16T00:44:51.706Z,20.23
2023-02-16T00:47:31.827Z,20.13
2023-02-16T00:49:58.722Z,20.03
2023-02-16T00:52:39.757Z,21.10
2023-02-16T00:55:12.805Z,20.57
2023-02-16T00:57:53.744Z,20.57
2023-02-16T01:00:30.023Z,20.00
2023-02-16T01:03:01.895Z,21.07
2023-02-16T01:05:29.017Z,19.70
2023-02-16T01:08:17.758Z,19.80
2023-02-16T01:11:03.262Z,18.87
2023-02-16T01:13:32.832Z,20.37
2023-02-16T01:15:59.604Z,19.73
2023-02-16T01:18:29.200Z,18.67
2023-02-16T01:20:55.868Z,19.47
2023-02-16T01:23:22.515Z,19.00
2023-02-16T01:25:49.247Z,18.40
2023-02-16T01:28:22.104Z,19.73
2023-02-16T01:30:49.472Z,19.47
2023-02-16T01:33:16.311Z,19.53
2023-02-16T01:35:43.753Z,21.10
2023-02-16T01:38:26.202Z,20.50
2023-02-16T01:41:05.904Z,20.13
2023-02-16T01:43:46.563Z,21.90
2023-02-16T01:46:33.184Z,20.50
2023-02-16T01:48:59.973Z,19.77
2023-02-16T01:51:34.316Z,20.13
2023-02-16T01:54:17.981Z,19.90
2023-02-16T01:57:05.099Z,19.73
2023-02-16T01:59:49.836Z,20.00
2023-02-16T02:02:25.918Z,19.87
2023-02-16T02:05:21.445Z,20.50
2023-02-16T02:08:06.452Z,22.97
2023-02-16T02:10:54.539Z,33.70
2023-02-16T02:13:41.687Z,31.37
2023-02-16T02:16:10.369Z,24.50
2023-02-16T02:18:37.497Z,30.40
2023-02-16T02:21:29.736Z,29.10
2023-02-16T02:24:08.551Z,26.67
2023-02-16T02:27:07.281Z,25.67
2023-02-16T02:30:06.329Z,25.97
2023-02-16T02:32:44.686Z,23.90
2023-02-16T02:35:29.812Z,24.50
2023-02-16T02:38:14.221Z,21.77
2023-02-16T02:41:04.611Z,22.33
2023-02-16T02:43:43.226Z,23.83
2023-02-16T02:46:09.815Z,23.07
2023-02-16T02:48:36.579Z,21.60
2023-02-16T02:51:30.792Z,21.00
2023-02-16T02:54:35.071Z,19.80
2023-02-16T02:57:45.724Z,19.73
2023-02-16T03:00:40.736Z,20.27
2023-02-16T03:03:22.766Z,19.73
2023-02-16T03:06:17.657Z,20.10
2023-02-16T03:08:48.212Z,19.87
2023-02-16T03:11:41.428Z,20.87
2023-02-16T03:14:16.549Z,20.50
2023-02-16T03:17:16.437Z,20.50
2023-02-16T03:20:04.346Z,20.93
2023-02-16T03:22:51.119Z,19.93
2023-02-16T03:25:36.908Z,20.97
2023-02-16T03:28:27.360Z,19.87
2023-02-16T03:30:55.763Z,20.63
2023-02-16T03:33:23.850Z,20.37
2023-02-16T03:35:51.295Z,20.00
2023-02-16T03:38:18.377Z,20.87
2023-02-16T03:40:47.992Z,21.70
2023-02-16T03:43:14.622Z,20.80
2023-02-16T03:45:43.314Z,21.03
2023-02-16T03:48:10.287Z,19.20
2023-02-16T03:50:37.291Z,19.63
2023-02-16T03:53:07.193Z,18.53
2023-02-16T03:55:34.001Z,20.83
2023-02-16T03:58:01.513Z,19.87
2023-02-16T04:00:28.613Z,19.43
2023-02-16T04:02:55.314Z,20.90
2023-02-16T04:05:21.975Z,19.67
2023-02-16T04:07:48.623Z,20.27
2023-02-16T04:10:15.679Z,18.90
2023-02-16T04:12:42.299Z,20.00
2023-02-16T04:15:15.249Z,20.03
2023-02-16T04:17:41.976Z,19.50
2023-02-16T04:20:11.435Z,20.47
2023-02-16T04:22:38.243Z,21.37
2023-02-16T04:25:05.619Z,20.43
2023-02-16T04:27:32.302Z,20.30
2023-02-16T04:29:59.012Z,21.33
2023-02-16T04:32:25.698Z,21.07
2023-02-16T04:34:52.375Z,21.13
2023-02-16T04:37:19.075Z,21.50
2023-02-16T04:39:45.723Z,21.00
2023-02-16T04:42:12.487Z,19.43
2023-02-16T04:44:39.134Z,20.13
2023-02-16T04:47:05.782Z,20.70
2023-02-16T04:49:32.445Z,21.50
2023-02-16T04:52:00.887Z,20.33
2023-02-16T04:54:27.905Z,19.67
2023-02-16T04:56:54.681Z,20.03
2023-02-16T04:59:21.733Z,19.47
2023-02-16T05:01:49.089Z,19.70
2023-02-16T05:04:16.511Z,19.07
2023-02-16T05:06:43.452Z,19.23
2023-02-16T05:09:10.490Z,19.20
2023-02-16T05:11:55.778Z,19.27
2023-02-16T05:14:45.444Z,19.60
2023-02-16T05:17:24.017Z,18.87
2023-02-16T05:19:53.481Z,19.27
2023-02-16T05:22:20.795Z,19.77
2023-02-16T05:24:48.169Z,19.13
2023-02-16T05:27:18.858Z,21.23
2023-02-16T05:29:46.104Z,20.53
2023-02-16T05:32:13.216Z,21.30
2023-02-16T05:34:40.113Z,19.90
2023-02-16T05:37:06.969Z,20.77
2023-02-16T05:39:34.606Z,21.20
2023-02-16T05:42:01.349Z,20.93
2023-02-16T05:44:28.222Z,20.40
2023-02-16T05:46:54.826Z,21.23
2023-02-16T05:49:21.525Z,20.13
2023-02-16T05:51:48.191Z,20.10
2023-02-16T05:54:18.050Z,21.13
2023-02-16T05:56:49.406Z,19.47
2023-02-16T05:59:16.881Z,18.47
2023-02-16T06:01:44.510Z,20.27
2023-02-16T06:04:14.624Z,19.67
2023-02-16T06:06:41.529Z,20.57
2023-02-16T06:09:09.134Z,20.53
2023-02-16T06:11:36.625Z,20.33
2023-02-16T06:14:07.457Z,21.73
2023-02-16T06:16:35.334Z,21.60
2023-02-16T06:19:02.172Z,21.93
2023-02-16T06:21:29.067Z,20.80
2023-02-16T06:23:55.753Z,21.27
2023-02-16T06:26:23.045Z,20.23
2023-02-16T06:28:49.877Z,23.00
2023-02-16T06:31:16.656Z,22.43
2023-02-16T06:33:43.580Z,20.10
2023-02-16T06:36:10.810Z,19.63
2023-02-16T06:38:37.702Z,20.73
2023-02-16T06:41:04.839Z,19.87
2023-02-16T06:43:31.902Z,20.23
2023-02-16T06:45:58.796Z,21.10
2023-02-16T06:48:25.481Z,20.97
2023-02-16T06:50:52.456Z,20.27
2023-02-16T06:53:20.452Z,19.40
2023-02-16T06:55:49.589Z,19.37
2023-02-16T06:58:16.188Z,19.30
2023-02-16T07:00:42.822Z,19.50
2023-02-16T07:03:09.602Z,20.07
2023-02-16T07:05:36.325Z,20.17
2023-02-16T07:08:03.088Z,19.23
2023-02-16T07:10:43.695Z,20.47
2023-02-16T07:13:15.973Z,19.07
2023-02-16T07:15:42.776Z,19.47
2023-02-16T07:18:09.515Z,18.67
2023-02-16T07:20:36.306Z,19.57
2023-02-16T07:23:02.934Z,19.13
2023-02-16T07:25:29.696Z,18.87
2023-02-16T07:27:56.358Z,19.10
2023-02-16T07:30:23.050Z,20.17
2023-02-16T07:32:49.759Z,19.27
2023-02-16T07:35:16.345Z,19.27
2023-02-16T07:37:42.973Z,20.63
2023-02-16T07:40:10.916Z,18.80
2023-02-16T07:42:37.677Z,18.70
2023-02-16T07:45:04.888Z,19.27
2023-02-16T07:47:31.664Z,18.70
2023-02-16T07:49:58.262Z,18.07
2023-02-16T07:52:30.803Z,20.20
2023-02-16T07:54:58.975Z,21.03
2023-02-16T07:57:26.828Z,19.73
2023-02-16T07:59:54.502Z,21.33
2023-02-16T08:02:22.434Z,22.40
2023-02-16T08:04:49.582Z,21.63
2023-02-16T08:07:17.294Z,20.60
2023-02-16T08:09:44.454Z,22.43
2023-02-16T08:12:15.783Z,22.17
2023-02-16T08:14:43.408Z,22.83
2023-02-16T08:17:10.569Z,24.40
2023-02-16T08:19:37.325Z,22.40
2023-02-16T08:22:05.283Z,22.47
2023-02-16T08:24:33.918Z,22.20
2023-02-16T08:27:03.540Z,22.93
2023-02-16T08:29:31.084Z,22.07
2023-02-16T08:31:57.904Z,22.27
2023-02-16T08:34:25.208Z,21.80
2023-02-16T08:36:56.962Z,21.13
2023-02-16T08:39:26.827Z,20.77
2023-02-16T08:41:54.485Z,20.80
2023-02-16T08:44:23.609Z,20.73
2023-02-16T08:46:52.180Z,20.50
2023-02-16T08:49:21.889Z,20.40
2023-02-16T08:51:57.519Z,20.00
2023-02-16T08:54:30.364Z,20.67
2023-02-16T08:56:59.019Z,20.03
2023-02-16T08:59:28.406Z,20.60
2023-02-16T09:01:55.540Z,21.80
2023-02-16T09:04:22.553Z,21.33
2023-02-16T09:06:49.193Z,20.93
2023-02-16T09:09:16.668Z,21.83
2023-02-16T09:11:43.362Z,20.63
2023-02-16T09:14:10.497Z,20.47
2023-02-16T09:16:39.773Z,20.67
2023-02-16T09:19:07.205Z,19.30
2023-02-16T09:21:34.287Z,19.40
2023-02-16T09:24:03.439Z,20.30
2023-02-16T09:26:38.914Z,19.20
2023-02-16T09:29:07.026Z,21.50
2023-02-16T09:31:37.246Z,22.45
2023-02-16T09:34:07.853Z,27.50
2023-02-16T09:36:35.069Z,23.10
2023-02-16T09:39:02.322Z,21.45
2023-02-16T09:41:57.696Z,20.50
2023-02-16T09:44:33.346Z,19.60
2023-02-16T09:47:04.857Z,18.80
2023-02-16T09:49:36.000Z,18.47
2023-02-16T09:52:09.057Z,18.23
2023-02-16T09:54:51.583Z,18.17
2023-02-16T09:57:59.117Z,16.73
2023-02-16T10:00:35.861Z,13.73
2023-02-16T10:03:28.875Z,13.10
2023-02-16T10:06:19.019Z,12.77
2023-02-16T10:08:54.415Z,12.97
2023-02-16T10:11:46.417Z,14.30
2023-02-16T10:14:58.478Z,13.37
2023-02-16T10:17:34.456Z,13.60
2023-02-16T10:20:16.503Z,12.77
2023-02-16T10:22:52.586Z,12.77
2023-02-16T10:25:34.301Z,13.97
2023-02-16T10:28:16.392Z,13.40
2023-02-16T10:30:50.556Z,13.50
2023-02-16T10:33:33.877Z,13.07
2023-02-16T10:36:07.113Z,12.90
2023-02-16T10:38:51.366Z,11.93
2023-02-16T10:41:31.488Z,12.90
2023-02-16T10:44:11.292Z,11.87
2023-02-16T10:46:56.773Z,12.13
2023-02-16T10:49:25.743Z,11.93
2023-02-16T10:51:55.344Z,11.97
2023-02-16T10:54:27.253Z,12.73
2023-02-16T10:56:59.592Z,12.97
2023-02-16T10:59:42.473Z,11.07
2023-02-16T11:02:30.846Z,10.87
2023-02-16T11:04:58.852Z,10.90
2023-02-16T11:07:28.269Z,11.43
2023-02-16T11:09:57.191Z,11.47
2023-02-16T11:12:38.355Z,12.10
2023-02-16T11:15:08.358Z,11.40
2023-02-16T11:17:53.056Z,12.70
2023-02-16T11:20:31.822Z,11.57
2023-02-16T11:23:23.078Z,11.87
2023-02-16T11:26:13.010Z,11.90
2023-02-16T11:28:42.022Z,11.20
2023-02-16T11:31:32.144Z,11.07
2023-02-16T11:34:06.414Z,11.43
2023-02-16T11:36:40.408Z,12.07
2023-02-16T11:39:24.081Z,10.77
2023-02-16T11:41:56.157Z,11.63
2023-02-16T11:44:27.853Z,11.47
2023-02-16T11:46:57.174Z,11.80
2023-02-16T11:49:37.315Z,11.53
2023-02-16T11:52:23.134Z,11.63
2023-02-16T11:54:51.852Z,11.98
2023-02-16T11:57:29.633Z,12.00
2023-02-16T11:59:57.480Z,12.20
2023-02-16T12:02:46.382Z,11.93
2023-02-16T12:05:35.579Z,11.50
2023-02-16T12:08:27.784Z,11.10
2023-02-16T12:11:12.401Z,11.60
2023-02-16T12:13:51.052Z,11.90
2023-02-16T12:16:36.992Z,11.27
2023-02-16T12:19:22.050Z,11.00
2023-02-16T12:22:01.101Z,10.67
2023-02-16T12:24:49.388Z,11.73
2023-02-16T12:27:21.995Z,10.37
2023-02-16T12:30:13.103Z,11.43
2023-02-16T12:32:50.307Z,10.90
2023-02-16T12:35:22.702Z,10.73
2023-02-16T12:38:13.435Z,10.80
2023-02-16T12:41:09.327Z,10.03
2023-02-16T12:43:44.811Z,10.13
2023-02-16T12:46:17.548Z,10.17
2023-02-16T12:48:47.917Z,9.77
2023-02-16T12:51:22.904Z,10.00
2023-02-16T12:54:01.563Z,9.50
2023-02-16T12:56:38.851Z,9.60
2023-02-16T12:59:26.018Z,9.43
2023-02-16T13:01:56.223Z,9.20
2023-02-16T13:04:48.818Z,9.60
2023-02-16T13:07:38.729Z,9.73
2023-02-16T13:10:22.645Z,10.70
2023-02-16T13:13:04.641Z,9.97
2023-02-16T13:15:38.907Z,10.23
2023-02-16T13:18:18.623Z,11.10
2023-02-16T13:21:08.133Z,9.97
2023-02-16T13:24:11.306Z,11.50
2023-02-16T13:26:55.694Z,11.90
2023-02-16T13:29:31.362Z,11.17
2023-02-16T13:32:37.739Z,11.80
2023-02-16T13:35:20.022Z,12.53
2023-02-16T13:38:05.120Z,13.40
2023-02-16T13:40:59.731Z,13.27
2023-02-16T13:43:52.080Z,12.17
2023-02-16T13:46:28.985Z,13.07
2023-02-16T13:48:56.113Z,12.07
2023-02-16T13:51:26.281Z,12.47
2023-02-16T13:53:59.147Z,13.13
2023-02-16T13:56:28.652Z,12.47
2023-02-16T13:58:58.060Z,12.23
2023-02-16T14:01:44.128Z,12.37
2023-02-16T14:04:27.567Z,12.50
2023-02-16T14:07:03.403Z,10.80
2023-02-16T14:09:37.089Z,10.63
2023-02-16T14:12:16.804Z,11.40
2023-02-16T14:14:43.417Z,10.30
2023-02-16T14:17:19.231Z,10.80
2023-02-16T14:19:55.186Z,10.27
2023-02-16T14:22:50.791Z,9.67
2023-02-16T14:25:23.397Z,9.50
2023-02-16T14:27:50.575Z,9.20
2023-02-16T14:30:51.760Z,8.80
2023-02-16T14:33:38.852Z,8.87
2023-02-16T14:36:14.016Z,9.40
2023-02-16T14:38:40.669Z,9.30
2023-02-16T14:41:23.850Z,9.97
2023-02-16T14:43:56.450Z,9.27
2023-02-16T14:46:58.811Z,9.73
2023-02-16T14:49:33.575Z,9.70
2023-02-16T14:52:09.027Z,9.57
2023-02-16T14:55:13.644Z,9.63
2023-02-16T14:57:48.484Z,10.10
2023-02-16T15:00:24.748Z,10.00
2023-02-16T15:02:58.985Z,9.93
2023-02-16T15:05:29.916Z,9.87
2023-02-16T15:08:24.012Z,10.20
2023-02-16T15:10:56.209Z,9.67
2023-02-16T15:13:30.842Z,10.47
2023-02-16T15:16:00.319Z,10.70
2023-02-16T15:18:40.297Z,10.63
2023-02-16T15:21:17.037Z,9.50
2023-02-16T15:23:52.544Z,9.97
2023-02-16T15:26:26.314Z,9.53
2023-02-16T15:29:16.535Z,10.13
2023-02-16T15:31:44.071Z,10.63
2023-02-16T15:34:26.324Z,9.73
2023-02-16T15:36:53.008Z,10.17
2023-02-16T15:39:37.902Z,10.60
2023-02-16T15:42:18.836Z,10.53
2023-02-16T15:44:48.020Z,11.03
2023-02-16T15:47:22.404Z,11.53
2023-02-16T15:49:49.892Z,11.47
2023-02-16T15:52:27.490Z,11.40
2023-02-16T15:54:55.199Z,12.37
2023-02-16T15:57:30.990Z,11.90
2023-02-16T16:00:00.567Z,11.37
2023-02-16T16:02:38.318Z,13.03
2023-02-16T16:05:09.664Z,12.93
2023-02-16T16:07:40.047Z,12.60
2023-02-16T16:10:25.019Z,13.10
2023-02-16T16:12:56.472Z,12.87
2023-02-16T16:15:26.264Z,13.30
2023-02-16T16:17:54.904Z,13.37
2023-02-16T16:20:27.705Z,13.17
2023-02-16T16:23:14.073Z,12.87
2023-02-16T16:25:46.505Z,13.00
2023-02-16T16:28:36.563Z,12.37
2023-02-16T16:31:11.942Z,13.17
2023-02-16T16:33:54.961Z,11.83
2023-02-16T16:36:32.123Z,12.90
2023-02-16T16:39:17.072Z,12.40
2023-02-16T16:42:16.082Z,12.23
2023-02-16T16:44:56.468Z,12.97
2023-02-16T16:47:29.396Z,12.73
2023-02-16T16:49:58.225Z,13.07
2023-02-16T16:52:32.235Z,12.27
2023-02-16T16:54:59.062Z,12.67
2023-02-16T16:57:25.961Z,12.00
2023-02-16T16:59:52.623Z,12.50
2023-02-16T17:02:19.381Z,12.20
2023-02-16T17:04:45.983Z,12.40
2023-02-16T17:07:12.715Z,13.20
2023-02-16T17:09:39.368Z,13.70
2023-02-16T17:12:06.416Z,12.93
2023-02-16T17:14:34.048Z,12.53
2023-02-16T17:17:00.798Z,12.70
2023-02-16T17:19:29.340Z,13.40
2023-02-16T17:21:56.089Z,12.60
2023-02-16T17:24:23.199Z,13.03
2023-02-16T17:26:50.215Z,13.17
2023-02-16T17:29:16.977Z,12.50
2023-02-16T17:31:43.779Z,12.63
2023-02-16T17:34:10.496Z,12.00
2023-02-16T17:36:37.384Z,13.23
2023-02-16T17:39:04.384Z,12.63
2023-02-16T17:41:31.037Z,12.77
2023-02-16T17:43:57.735Z,13.00
2023-02-16T17:46:25.475Z,13.03
2023-02-16T17:48:55.112Z,12.33
2023-02-16T17:51:24.198Z,12.90
2023-02-16T17:53:51.661Z,12.40
2023-02-16T17:56:21.563Z,12.70
2023-02-16T17:58:48.910Z,12.97
2023-02-16T18:01:16.649Z,12.80
2023-02-16T18:03:43.412Z,13.33
2023-02-16T18:06:14.797Z,12.67
2023-02-16T18:08:41.954Z,13.33
2023-02-16T18:11:08.649Z,13.73
2023-02-16T18:13:35.387Z,13.93
2023-02-16T18:16:03.882Z,12.57
2023-02-16T18:18:32.787Z,13.07
2023-02-16T18:20:59.543Z,12.97
2023-02-16T18:23:26.261Z,13.63
2023-02-16T18:25:53.131Z,13.73
2023-02-16T18:28:25.391Z,12.93
2023-02-16T18:30:52.037Z,13.83
2023-02-16T18:33:21.120Z,14.10
2023-02-16T18:35:52.403Z,13.57
2023-02-16T18:38:21.837Z,15.07
2023-02-16T18:40:49.475Z,14.80
2023-02-16T18:43:16.125Z,14.37
2023-02-16T18:45:42.834Z,13.90
2023-02-16T18:48:09.597Z,14.00
2023-02-16T18:50:36.244Z,14.60
2023-02-16T18:53:03.036Z,14.67
2023-02-16T18:55:32.965Z,14.20
2023-02-16T18:58:01.405Z,14.07
2023-02-16T19:00:28.734Z,14.63
2023-02-16T19:02:56.881Z,15.10
2023-02-16T19:05:24.254Z,14.53
2023-02-16T19:07:51.315Z,14.20
2023-02-16T19:10:18.863Z,14.30
2023-02-16T19:12:45.557Z,14.50
2023-02-16T19:15:12.173Z,14.67
2023-02-16T19:17:38.859Z,15.27
2023-02-16T19:20:09.038Z,14.10
2023-02-16T19:22:37.200Z,14.10
2023-02-16T19:25:05.779Z,14.10
2023-02-16T19:27:32.800Z,14.03
2023-02-16T19:30:02.447Z,14.13
2023-02-16T19:32:29.316Z,13.90
2023-02-16T19:34:56.020Z,15.07
2023-02-16T19:37:22.760Z,14.83
2023-02-16T19:39:49.434Z,13.63
2023-02-16T19:42:16.154Z,13.83
2023-02-16T19:44:42.838Z,14.30
2023-02-16T19:47:09.468Z,14.47
2023-02-16T19:49:36.636Z,14.13
2023-02-16T19:52:04.439Z,14.13
2023-02-16T19:54:34.782Z,14.23
2023-02-16T19:57:03.068Z,14.00
2023-02-16T19:59:31.679Z,14.50
2023-02-16T20:01:59.041Z,14.23
2023-02-16T20:04:25.871Z,14.87
2023-02-16T20:06:54.373Z,14.17
2023-02-16T20:09:22.038Z,14.07
2023-02-16T20:11:48.897Z,14.53
2023-02-16T20:14:16.125Z,13.73
2023-02-16T20:16:43.547Z,14.40
2023-02-16T20:19:10.238Z,13.10
2023-02-16T20:21:37.322Z,13.40
2023-02-16T20:24:05.641Z,13.40
2023-02-16T20:26:41.339Z,13.43
2023-02-16T20:29:09.465Z,12.93
2023-02-16T20:31:38.455Z,13.43
2023-02-16T20:34:06.137Z,13.13
2023-02-16T20:36:32.939Z,13.90
2023-02-16T20:38:59.560Z,13.60
2023-02-16T20:41:26.391Z,12.97
2023-02-16T20:43:53.379Z,12.23
2023-02-16T20:46:20.573Z,12.40
2023-02-16T20:48:49.916Z,11.23
2023-02-16T20:51:17.189Z,11.90
2023-02-16T20:53:43.922Z,11.20
2023-02-16T20:56:21.624Z,11.03
2023-02-16T20:58:49.918Z,11.07
2023-02-16T21:01:21.996Z,10.93
2023-02-16T21:03:50.415Z,12.13
2023-02-16T21:06:17.650Z,10.63
2023-02-16T21:08:44.399Z,10.80
2023-02-16T21:11:11.516Z,11.30
2023-02-16T21:13:39.079Z,10.23
2023-02-16T21:16:07.207Z,10.00
2023-02-16T21:18:38.191Z,10.43
2023-02-16T21:21:06.646Z,10.47
2023-02-16T21:23:33.367Z,10.23
2023-02-16T21:26:02.072Z,9.97
2023-02-16T21:28:28.980Z,10.57
2023-02-16T21:30:56.049Z,10.83
2023-02-16T21:33:23.075Z,10.30
2023-02-16T21:35:49.792Z,10.97
2023-02-16T21:38:17.692Z,9.90
2023-02-16T21:41:02.983Z,9.80
2023-02-16T21:43:29.644Z,9.93
2023-02-16T21:46:01.109Z,9.73
2023-02-16T21:48:47.345Z,9.90
2023-02-16T21:51:16.577Z,9.60
2023-02-16T21:53:43.329Z,9.57
2023-02-16T21:56:30.951Z,9.83
2023-02-16T21:58:58.080Z,9.70
2023-02-16T22:01:28.518Z,9.37
2023-02-16T22:04:04.270Z,9.33
2023-02-16T22:06:34.188Z,9.30
2023-02-16T22:09:05.882Z,10.10
2023-02-16T22:11:32.767Z,10.17
2023-02-16T22:14:00.415Z,8.80
2023-02-16T22:16:29.401Z,9.33
2023-02-16T22:19:02.936Z,8.77
2023-02-16T22:21:30.740Z,8.93
2023-02-16T22:23:57.953Z,9.07
2023-02-16T22:26:27.723Z,8.53
2023-02-16T22:28:55.164Z,8.57
2023-02-16T22:31:24.199Z,8.33
2023-02-16T22:33:58.623Z,8.43
2023-02-16T22:36:25.998Z,7.37
2023-02-16T22:38:53.636Z,8.10
2023-02-16T22:41:21.292Z,7.57
2023-02-16T22:43:48.182Z,7.80
2023-02-16T22:46:17.075Z,7.70
2023-02-16T22:48:44.306Z,7.70
2023-02-16T22:51:13.610Z,7.23
2023-02-16T22:53:40.672Z,6.70
2023-02-16T22:56:08.934Z,7.17
2023-02-16T22:58:36.372Z,7.47
2023-02-16T23:01:03.990Z,7.13
2023-02-16T23:03:31.161Z,7.30
2023-02-16T23:05:57.832Z,7.40
2023-02-16T23:08:24.464Z,7.07
2023-02-16T23:11:00.512Z,7.00
2023-02-16T23:13:33.181Z,6.73
2023-02-16T23:16:06.126Z,6.63
2023-02-16T23:18:33.989Z,7.40
2023-02-16T23:21:08.381Z,7.03
2023-02-16T23:23:35.547Z,7.57
2023-02-16T23:26:02.906Z,7.13
2023-02-16T23:28:29.595Z,7.50
2023-02-16T23:30:57.291Z,6.10
2023-02-16T23:33:24.218Z,6.87
2023-02-16T23:35:51.144Z,6.33
2023-02-16T23:38:18.256Z,6.03
2023-02-16T23:40:44.968Z,6.20
2023-02-16T23:43:11.641Z,6.27
2023-02-16T23:45:38.768Z,6.33
2023-02-16T23:48:05.562Z,6.03
2023-02-16T23:50:32.157Z,6.00
2023-02-16T23:52:58.836Z,6.27
2023-02-16T23:55:25.511Z,6.13
2023-02-16T23:57:52.182Z,5.83
